Time;durP1;ratioP1;P1;durP2;ratioP2;P2;SDS_P1;SDS_P2;PMS_P1;PMS_P2;Temp;Humidity;BMP_temperature;BMP_pressure;BME280_temperature;BME280_humidity;BME280_pressure;Samples;Min_cycle;Max_cycle;Signal;HPM_P1;HPM_P2
2022/01/09 00:00:25;;;;;;;5.53;4.75;;;5.10;99.90;;;;;;5058872;28;20186;-71
2022/01/09 00:02:51;;;;;;;5.18;4.35;;;5.10;99.90;;;;;;5082672;28;20104;-71
2022/01/09 00:05:18;;;;;;;5.05;3.78;;;5.10;99.90;;;;;;5067102;28;20039;-71
2022/01/09 00:07:44;;;;;;;3.30;3.00;;;5.10;99.90;;;;;;5080238;28;20052;-71
2022/01/09 00:10:10;;;;;;;3.83;3.15;;;5.10;99.90;;;;;;5081653;28;20413;-70
2022/01/09 00:12:37;;;;;;;3.90;3.13;;;5.20;99.90;;;;;;5077641;28;20379;-71
2022/01/09 00:15:05;;;;;;;4.75;3.55;;;5.20;99.90;;;;;;5082048;28;20097;-70
2022/01/09 00:17:31;;;;;;;4.68;3.95;;;5.20;99.90;;;;;;5078767;28;20079;-72
2022/01/09 00:19:57;;;;;;;6.53;3.88;;;5.30;99.90;;;;;;5078822;28;20507;-71
2022/01/09 00:22:34;;;;;;;4.72;3.30;;;5.30;99.90;;;;;;5081295;28;21014;-70
2022/01/09 00:25:00;;;;;;;5.40;3.83;;;5.30;99.90;;;;;;5067893;28;20349;-71
2022/01/09 00:27:27;;;;;;;5.00;4.25;;;5.30;99.90;;;;;;5080448;28;20494;-71
2022/01/09 00:29:53;;;;;;;4.57;3.50;;;5.30;99.90;;;;;;5078827;28;20113;-71
2022/01/09 00:32:18;;;;;;;4.18;3.10;;;5.30;99.90;;;;;;5079948;28;20486;-71
2022/01/09 00:34:44;;;;;;;4.43;3.85;;;5.30;99.90;;;;;;5080067;28;20052;-72
2022/01/09 00:37:10;;;;;;;5.28;3.88;;;5.30;99.90;;;;;;5076182;28;20046;-70
2022/01/09 00:39:36;;;;;;;5.25;3.92;;;5.30;99.90;;;;;;5077622;28;20473;-70
2022/01/09 00:42:02;;;;;;;4.75;3.38;;;5.20;99.90;;;;;;5081801;28;20043;-70
2022/01/09 00:44:27;;;;;;;6.28;3.63;;;5.30;99.90;;;;;;5076845;28;20040;-70
2022/01/09 00:46:56;;;;;;;5.70;3.95;;;5.20;99.90;;;;;;5082023;28;20044;-71
2022/01/09 00:49:22;;;;;;;4.20;3.65;;;5.30;99.90;;;;;;5075898;28;20032;-70
2022/01/09 00:51:48;;;;;;;4.43;3.55;;;5.30;99.90;;;;;;5080652;28;20466;-70
2022/01/09 00:54:14;;;;;;;4.85;4.32;;;5.20;99.90;;;;;;5079351;28;20328;-70
2022/01/09 00:56:40;;;;;;;4.40;3.80;;;5.20;99.90;;;;;;5076562;28;20523;-71
2022/01/09 00:59:05;;;;;;;4.20;3.50;;;5.30;99.90;;;;;;5080855;28;20157;-71
2022/01/09 01:01:31;;;;;;;4.40;3.78;;;5.20;99.90;;;;;;5075723;28;20046;-70
2022/01/09 01:03:57;;;;;;;6.10;3.92;;;5.20;99.90;;;;;;5080088;28;20036;-70
2022/01/09 01:06:23;;;;;;;4.38;3.85;;;5.20;99.90;;;;;;5081420;28;20821;-70
2022/01/09 01:08:50;;;;;;;5.45;4.32;;;5.20;99.90;;;;;;5078108;28;20054;-70
2022/01/09 01:11:15;;;;;;;5.55;4.43;;;5.20;99.90;;;;;;5081336;28;20048;-71
2022/01/09 01:13:41;;;;;;;5.53;3.95;;;5.20;99.90;;;;;;5077018;28;20054;-71
2022/01/09 01:16:07;;;;;;;5.32;4.07;;;5.20;99.90;;;;;;5077057;28;21327;-72
2022/01/09 01:18:33;;;;;;;7.53;4.05;;;5.20;99.90;;;;;;5080677;28;20093;-71
2022/01/09 01:20:59;;;;;;;5.97;4.40;;;5.20;99.90;;;;;;5074240;28;20076;-71
2022/01/09 01:23:25;;;;;;;5.72;4.18;;;5.20;99.90;;;;;;5081839;28;20071;-71
2022/01/09 01:25:52;;;;;;;4.93;3.65;;;5.20;99.90;;;;;;5076375;28;20687;-71
2022/01/09 01:28:18;;;;;;;5.70;4.57;;;5.20;99.90;;;;;;5078871;28;20111;-70
2022/01/09 01:30:45;;;;;;;5.20;3.90;;;5.20;99.90;;;;;;5080598;28;20044;-72
2022/01/09 01:33:11;;;;;;;6.53;3.60;;;5.30;99.90;;;;;;5077928;28;20543;-71
2022/01/09 01:35:36;;;;;;;12.43;4.03;;;5.30;99.90;;;;;;5081383;28;20532;-71
2022/01/09 01:38:02;;;;;;;8.07;3.80;;;5.30;99.90;;;;;;5077323;28;20563;-71
2022/01/09 01:40:28;;;;;;;10.90;4.85;;;5.30;99.90;;;;;;5059733;28;20112;-72
2022/01/09 01:42:54;;;;;;;12.75;5.20;;;5.30;99.90;;;;;;5080173;28;20122;-72
2022/01/09 01:45:20;;;;;;;19.85;5.40;;;5.30;99.90;;;;;;5072892;28;20083;-72
2022/01/09 01:47:45;;;;;;;12.52;4.82;;;5.40;99.90;;;;;;5080711;28;20039;-72
2022/01/09 01:50:13;;;;;;;22.55;5.43;;;5.40;99.90;;;;;;5075546;28;20420;-72
2022/01/09 01:52:44;;;;;;;26.17;7.32;;;5.40;99.90;;;;;;5079357;28;20042;-70
2022/01/09 01:55:12;;;;;;;16.20;6.25;;;5.40;99.90;;;;;;5080503;28;20119;-71
2022/01/09 01:57:40;;;;;;;24.67;8.63;;;5.40;99.90;;;;;;5075988;28;20476;-71
2022/01/09 02:00:08;;;;;;;22.33;6.72;;;5.40;99.90;;;;;;5079052;28;20293;-71
2022/01/09 02:02:35;;;;;;;20.08;6.05;;;5.50;99.90;;;;;;5078023;28;20141;-71
2022/01/09 02:05:03;;;;;;;27.25;7.82;;;5.50;99.90;;;;;;5075958;28;20168;-71
2022/01/09 02:07:29;;;;;;;27.70;7.55;;;5.60;99.90;;;;;;5080778;28;20052;-71
2022/01/09 02:09:55;;;;;;;23.67;8.82;;;5.60;99.90;;;;;;5077947;28;20073;-72
2022/01/09 02:12:22;;;;;;;25.55;8.13;;;5.60;99.90;;;;;;5080192;28;20093;-72
2022/01/09 02:14:48;;;;;;;22.35;7.38;;;5.70;99.90;;;;;;5049853;28;20120;-71
2022/01/09 02:17:21;;;;;;;22.05;7.85;;;5.70;99.90;;;;;;5078169;28;20044;-71
2022/01/09 02:19:54;;;;;;;29.20;8.80;;;5.70;99.90;;;;;;5062827;28;20096;-71
2022/01/09 02:22:21;;;;;;;25.52;8.70;;;5.70;99.90;;;;;;5075904;28;20040;-71
2022/01/09 02:24:46;;;;;;;22.30;8.45;;;5.70;99.90;;;;;;5077557;28;20074;-71
2022/01/09 02:27:13;;;;;;;23.48;8.63;;;5.70;99.90;;;;;;5077338;28;20711;-71
2022/01/09 02:29:39;;;;;;;29.23;9.45;;;5.80;99.90;;;;;;5074932;28;20044;-71
2022/01/09 02:32:05;;;;;;;32.00;8.68;;;5.80;99.90;;;;;;5080691;28;20485;-71
2022/01/09 02:34:33;;;;;;;34.28;9.63;;;5.80;99.90;;;;;;5075819;28;20486;-72
2022/01/09 02:36:59;;;;;;;25.95;8.93;;;5.80;99.90;;;;;;5078120;28;20071;-73
2022/01/09 02:39:24;;;;;;;33.95;9.48;;;5.80;99.90;;;;;;5080121;28;20190;-71
2022/01/09 02:41:50;;;;;;;39.72;10.25;;;5.90;99.90;;;;;;5073190;28;20040;-72
2022/01/09 02:44:16;;;;;;;32.30;10.73;;;5.90;99.90;;;;;;5078768;28;20040;-71
2022/01/09 02:49:45;;;;;;;36.28;9.68;;;5.90;99.90;;;;;;5072605;28;20063;-70
2022/01/09 02:52:23;;;;;;;23.90;10.13;;;6.00;99.90;;;;;;5080033;28;20044;-71
2022/01/09 02:57:33;;;;;;;32.30;10.70;;;6.00;99.90;;;;;;5076394;28;20048;-71
2022/01/09 02:59:59;;;;;;;44.97;11.02;;;6.00;99.90;;;;;;5079699;28;20047;-71
2022/01/09 03:02:26;;;;;;;27.15;10.15;;;6.10;99.90;;;;;;5074712;28;20099;-71
2022/01/09 03:04:52;;;;;;;32.97;9.68;;;6.10;99.90;;;;;;5077650;28;20728;-71
2022/01/09 03:07:17;;;;;;;34.17;9.07;;;6.10;99.90;;;;;;5075929;28;20090;-71
2022/01/09 03:09:43;;;;;;;33.65;8.68;;;6.10;99.90;;;;;;5075115;28;20075;-71
2022/01/09 03:12:11;;;;;;;26.15;8.93;;;6.10;99.90;;;;;;5080275;28;20067;-71
2022/01/09 03:14:37;;;;;;;28.50;8.93;;;6.10;99.90;;;;;;5077578;28;20067;-71
2022/01/09 03:17:03;;;;;;;32.67;8.82;;;6.10;99.90;;;;;;5080598;28;20508;-71
2022/01/09 03:19:29;;;;;;;40.83;9.60;;;6.10;99.90;;;;;;5080688;28;20121;-71
2022/01/09 03:21:55;;;;;;;35.42;8.73;;;6.10;99.90;;;;;;5077756;28;20655;-71
2022/01/09 03:24:20;;;;;;;19.27;7.60;;;6.10;99.90;;;;;;5082081;28;20051;-71
2022/01/09 03:26:46;;;;;;;42.83;9.93;;;6.10;99.90;;;;;;5075567;28;20122;-71
2022/01/09 03:29:12;;;;;;;28.83;7.47;;;6.20;99.90;;;;;;5078704;28;20242;-71
2022/01/09 03:31:38;;;;;;;26.35;7.63;;;6.10;99.90;;;;;;5064309;28;20036;-72
2022/01/09 03:34:04;;;;;;;28.70;8.60;;;6.20;99.90;;;;;;5075463;28;20592;-71
2022/01/09 03:36:29;;;;;;;26.15;7.50;;;6.10;99.90;;;;;;5083159;28;20123;-71
2022/01/09 03:38:55;;;;;;;25.58;7.88;;;6.20;99.90;;;;;;5079060;28;20047;-71
2022/01/09 03:41:21;;;;;;;23.02;6.88;;;6.10;99.90;;;;;;5080281;28;20068;-71
2022/01/09 03:43:47;;;;;;;26.73;7.93;;;6.20;99.90;;;;;;5080057;28;20048;-71
2022/01/09 03:46:13;;;;;;;21.75;6.70;;;6.20;99.90;;;;;;5076110;28;20109;-71
2022/01/09 03:48:38;;;;;;;29.88;8.40;;;6.20;99.90;;;;;;5083344;28;20050;-71
2022/01/09 03:51:04;;;;;;;24.48;7.43;;;6.20;99.90;;;;;;5078341;28;20039;-72
2022/01/09 03:53:31;;;;;;;25.75;7.68;;;6.20;99.90;;;;;;5079003;28;20040;-71
2022/01/09 03:55:58;;;;;;;22.60;6.10;;;6.20;99.90;;;;;;5083549;28;20127;-71
2022/01/09 03:58:23;;;;;;;25.75;6.68;;;6.20;99.90;;;;;;5080043;28;20066;-71
2022/01/09 04:00:49;;;;;;;26.05;7.00;;;6.20;99.90;;;;;;5082721;28;20029;-71
2022/01/09 04:03:15;;;;;;;27.58;8.75;;;6.20;99.90;;;;;;5062045;28;20035;-71
2022/01/09 04:05:41;;;;;;;23.65;7.25;;;6.20;99.90;;;;;;5079000;28;20080;-71
2022/01/09 04:08:06;;;;;;;21.00;6.00;;;6.20;99.90;;;;;;5063021;28;20074;-71
2022/01/09 04:10:39;;;;;;;22.92;6.65;;;6.20;99.90;;;;;;5077278;28;20103;-71
2022/01/09 04:13:06;;;;;;;27.48;8.45;;;6.20;99.90;;;;;;5082074;28;20087;-71
2022/01/09 04:15:34;;;;;;;22.50;5.53;;;6.20;99.90;;;;;;5066191;28;20052;-71
2022/01/09 04:18:02;;;;;;;20.55;5.63;;;6.10;99.90;;;;;;5080778;28;20043;-71
2022/01/09 04:20:32;;;;;;;23.30;6.68;;;6.10;99.90;;;;;;5083105;28;20497;-71
2022/01/09 04:22:59;;;;;;;19.60;5.90;;;6.10;99.90;;;;;;5077023;28;20051;-71
2022/01/09 04:25:26;;;;;;;28.80;6.47;;;6.10;99.90;;;;;;5081451;28;20040;-71
2022/01/09 04:27:52;;;;;;;18.67;5.22;;;6.10;99.90;;;;;;5032870;28;20181;-71
2022/01/09 04:30:18;;;;;;;28.88;7.35;;;6.10;99.90;;;;;;5078615;28;20483;-72
2022/01/09 04:32:47;;;;;;;19.60;5.85;;;6.10;99.90;;;;;;5082786;28;20032;-71
2022/01/09 04:35:13;;;;;;;28.08;6.28;;;6.10;99.90;;;;;;5077177;28;20074;-71
2022/01/09 04:37:39;;;;;;;26.42;5.57;;;6.10;99.90;;;;;;5064541;28;20427;-71
2022/01/09 04:40:08;;;;;;;19.42;5.85;;;6.00;99.90;;;;;;5079926;28;20445;-71
2022/01/09 04:42:41;;;;;;;20.95;5.38;;;6.10;99.90;;;;;;5078091;28;20036;-71
2022/01/09 04:45:08;;;;;;;;;;;6.00;99.90;;;;;;5081796;28;20036;-71
2022/01/09 04:47:34;;;;;;;23.40;5.20;;;6.00;99.90;;;;;;5077848;28;19920;-72
2022/01/09 04:50:01;;;;;;;27.08;5.43;;;6.00;99.90;;;;;;5077684;28;20341;-71
2022/01/09 04:52:33;;;;;;;13.38;4.72;;;6.00;99.90;;;;;;5080884;28;20119;-72
2022/01/09 04:54:59;;;;;;;19.07;4.50;;;6.00;99.90;;;;;;5075063;28;20043;-71
2022/01/09 04:57:25;;;;;;;22.70;5.13;;;6.00;99.90;;;;;;5082416;28;20036;-71
2022/01/09 04:59:51;;;;;;;17.52;4.55;;;6.00;99.90;;;;;;5077841;28;20078;-71
2022/01/09 05:02:17;;;;;;;11.35;4.28;;;6.00;99.90;;;;;;5078362;28;20049;-71
2022/01/09 05:04:43;;;;;;;17.08;4.78;;;6.00;99.90;;;;;;5079263;28;20059;-71
2022/01/09 05:07:09;;;;;;;16.10;5.30;;;5.90;99.90;;;;;;5076148;28;20666;-71
2022/01/09 05:09:35;;;;;;;15.27;4.95;;;5.90;99.90;;;;;;5079959;28;20050;-71
2022/01/09 05:12:01;;;;;;;15.95;4.70;;;6.00;99.90;;;;;;5079016;28;20032;-73
2022/01/09 05:14:27;;;;;;;14.43;5.03;;;5.90;99.90;;;;;;5073982;28;20435;-71
2022/01/09 05:16:52;;;;;;;27.40;5.43;;;6.00;99.90;;;;;;5083051;28;20040;-72
2022/01/09 05:19:21;;;;;;;15.75;4.53;;;5.90;99.90;;;;;;5077985;28;20185;-71
2022/01/09 05:21:48;;;;;;;19.05;5.95;;;5.90;99.90;;;;;;5080333;28;20048;-71
2022/01/09 05:24:14;;;;;;;14.80;4.40;;;6.00;99.90;;;;;;5076342;28;20055;-71
2022/01/09 05:26:40;;;;;;;19.17;5.80;;;5.90;99.90;;;;;;5077935;28;20433;-71
2022/01/09 05:29:06;;;;;;;20.67;5.15;;;5.90;99.90;;;;;;5079932;28;20047;-72
2022/01/09 05:31:32;;;;;;;15.25;5.20;;;5.90;99.90;;;;;;5076371;28;20067;-71
2022/01/09 05:33:58;;;;;;;14.55;5.20;;;5.90;99.90;;;;;;5078432;28;20104;-71
2022/01/09 05:36:24;;;;;;;14.10;4.95;;;5.90;99.90;;;;;;5061665;28;20160;-72
2022/01/09 05:38:49;;;;;;;20.08;5.05;;;5.90;99.90;;;;;;5077162;28;20110;-71
2022/01/09 05:41:15;;;;;;;25.13;5.43;;;5.90;99.90;;;;;;5081938;28;20032;-71
2022/01/09 05:43:41;;;;;;;16.90;5.82;;;5.90;99.90;;;;;;5075191;28;20101;-71
2022/01/09 05:46:07;;;;;;;20.10;5.15;;;5.90;99.90;;;;;;5077428;28;20545;-71
2022/01/09 05:48:33;;;;;;;21.25;5.03;;;5.90;99.90;;;;;;5078569;28;20105;-71
2022/01/09 05:50:59;;;;;;;15.88;5.32;;;5.90;99.90;;;;;;5075266;28;20102;-72
2022/01/09 05:53:24;;;;;;;14.82;4.53;;;5.90;99.90;;;;;;5080829;28;20047;-71
2022/01/09 05:55:50;;;;;;;20.20;5.50;;;5.90;99.90;;;;;;5075598;28;20402;-72
2022/01/09 05:58:16;;;;;;;23.27;5.13;;;5.90;99.90;;;;;;5081114;28;20044;-71
2022/01/09 06:00:42;;;;;;;18.65;5.63;;;5.90;99.90;;;;;;5077892;28;20040;-71
2022/01/09 06:03:08;;;;;;;13.55;5.57;;;5.90;99.90;;;;;;5060305;28;20036;-71
2022/01/09 06:05:33;;;;;;;15.40;5.35;;;5.90;99.90;;;;;;5079957;28;20036;-71
2022/01/09 06:07:59;;;;;;;21.92;5.57;;;5.80;99.90;;;;;;5075042;28;20311;-71
2022/01/09 06:10:25;;;;;;;17.08;5.43;;;5.80;99.90;;;;;;5077277;28;20501;-72
2022/01/09 06:12:51;;;;;;;18.10;4.78;;;5.80;99.90;;;;;;5077790;28;20039;-71
2022/01/09 06:15:17;;;;;;;11.77;5.13;;;5.80;99.90;;;;;;5057239;28;20048;-71
2022/01/09 06:17:44;;;;;;;23.25;5.28;;;5.80;99.90;;;;;;5081027;28;20712;-71
2022/01/09 06:20:13;;;;;;;11.55;4.28;;;5.80;99.90;;;;;;5077062;28;20036;-72
2022/01/09 06:22:41;;;;;;;12.75;3.75;;;5.80;99.90;;;;;;5078660;28;20086;-71
2022/01/09 06:25:07;;;;;;;19.73;4.63;;;5.80;99.90;;;;;;5078409;28;20040;-72
2022/01/09 06:27:33;;;;;;;19.50;4.38;;;5.80;99.90;;;;;;5074074;28;20340;-71
2022/01/09 06:29:59;;;;;;;16.02;4.80;;;5.80;99.90;;;;;;5062188;28;20417;-71
2022/01/09 06:32:25;;;;;;;15.38;4.57;;;5.80;99.90;;;;;;5075154;28;20834;-71
2022/01/09 06:34:51;;;;;;;13.70;4.25;;;5.80;99.90;;;;;;5075903;28;20040;-71
2022/01/09 06:37:17;;;;;;;15.52;4.47;;;5.80;99.90;;;;;;5077394;28;20048;-71
2022/01/09 06:39:44;;;;;;;9.77;4.18;;;5.80;99.90;;;;;;5077169;28;20036;-71
2022/01/09 06:42:10;;;;;;;12.73;4.35;;;5.80;99.90;;;;;;5077764;28;20045;-71
2022/01/09 06:44:36;;;;;;;9.85;3.90;;;5.70;99.90;;;;;;5072668;28;20036;-71
2022/01/09 06:47:02;;;;;;;12.00;4.13;;;5.70;99.90;;;;;;5076021;28;20486;-71
2022/01/09 06:49:28;;;;;;;21.10;4.65;;;5.80;99.90;;;;;;5079591;28;20114;-71
2022/01/09 06:51:54;;;;;;;12.02;3.40;;;5.70;99.90;;;;;;5076502;28;20530;-71
2022/01/09 06:54:20;;;;;;;18.55;4.65;;;5.70;99.90;;;;;;5079423;28;20509;-72
2022/01/09 06:56:46;;;;;;;14.52;4.18;;;5.70;99.90;;;;;;5068822;28;20090;-71
2022/01/09 06:59:12;;;;;;;10.35;3.15;;;5.70;99.90;;;;;;5074234;28;20146;-71
2022/01/09 07:01:38;;;;;;;12.77;3.28;;;5.70;99.90;;;;;;5077137;28;20556;-71
2022/01/09 07:04:04;;;;;;;13.32;3.50;;;5.60;99.90;;;;;;5077488;28;20059;-71
2022/01/09 07:06:29;;;;;;;10.07;2.67;;;5.60;99.90;;;;;;5080317;28;20083;-71
2022/01/09 07:08:55;;;;;;;8.00;2.88;;;5.60;99.90;;;;;;5073991;28;20090;-71
2022/01/09 07:11:21;;;;;;;7.05;2.53;;;5.60;99.90;;;;;;5079375;28;20049;-71
2022/01/09 07:13:47;;;;;;;8.65;2.75;;;5.60;99.90;;;;;;5077548;28;20354;-71
2022/01/09 07:16:13;;;;;;;9.70;2.47;;;5.60;99.90;;;;;;5077894;28;20074;-71
2022/01/09 07:18:38;;;;;;;10.73;2.80;;;5.60;99.90;;;;;;5081631;28;20075;-71
2022/01/09 07:21:04;;;;;;;10.45;2.72;;;5.60;99.90;;;;;;5080337;28;20067;-71
2022/01/09 07:23:31;;;;;;;8.63;3.08;;;5.50;99.90;;;;;;5083888;28;20032;-71
2022/01/09 07:25:57;;;;;;;13.02;3.60;;;5.50;99.90;;;;;;5079262;28;20447;-71
2022/01/09 07:28:23;;;;;;;11.60;2.90;;;5.50;99.90;;;;;;5077859;28;20043;-71
2022/01/09 07:30:48;;;;;;;8.48;2.63;;;5.50;99.90;;;;;;5081824;28;20523;-71
2022/01/09 07:33:14;;;;;;;13.45;2.75;;;5.50;99.90;;;;;;5078389;28;20058;-71
2022/01/09 07:35:40;;;;;;;14.43;3.63;;;5.50;99.90;;;;;;5082628;28;20496;-71
2022/01/09 07:38:06;;;;;;;8.13;2.83;;;5.40;99.90;;;;;;5062821;28;20050;-71
2022/01/09 07:40:32;;;;;;;10.20;3.47;;;5.40;99.90;;;;;;5076174;28;20992;-71
2022/01/09 07:42:58;;;;;;;10.88;3.10;;;5.50;99.90;;;;;;5081069;28;20043;-70
2022/01/09 07:45:27;;;;;;;9.55;2.78;;;5.40;99.90;;;;;;5062149;28;20401;-71
2022/01/09 07:47:55;;;;;;;5.32;2.78;;;5.50;99.90;;;;;;5063250;28;20386;-70
2022/01/09 07:50:22;;;;;;;12.50;3.55;;;5.40;99.90;;;;;;5082649;28;20047;-71
2022/01/09 07:52:48;;;;;;;12.30;3.40;;;5.40;99.90;;;;;;5060222;28;20036;-70
2022/01/09 07:55:14;;;;;;;11.40;3.95;;;5.50;99.90;;;;;;5082257;28;20135;-70
2022/01/09 07:57:41;;;;;;;13.00;2.88;;;5.40;99.90;;;;;;5078844;28;20580;-70
2022/01/09 08:00:09;;;;;;;13.35;3.78;;;5.40;99.90;;;;;;5080757;28;20042;-70
2022/01/09 08:02:43;;;;;;;10.13;3.90;;;5.40;99.90;;;;;;5082234;28;20486;-70
2022/01/09 08:05:10;;;;;;;9.00;3.30;;;5.50;99.90;;;;;;5078949;28;20041;-70
2022/01/09 08:07:36;;;;;;;10.73;3.90;;;5.50;99.90;;;;;;5082611;28;20096;-72
2022/01/09 08:10:03;;;;;;;11.00;4.25;;;5.40;99.90;;;;;;5079885;28;20048;-70
2022/01/09 08:12:29;;;;;;;11.48;4.53;;;5.50;99.90;;;;;;5077534;28;20047;-71
2022/01/09 08:14:55;;;;;;;9.48;3.67;;;5.50;99.90;;;;;;5080621;28;20048;-71
2022/01/09 08:17:21;;;;;;;14.40;4.15;;;5.50;99.90;;;;;;5077319;28;20051;-71
2022/01/09 08:19:47;;;;;;;15.70;5.05;;;5.50;99.90;;;;;;5079453;28;20489;-70
2022/01/09 08:22:13;;;;;;;9.75;4.35;;;5.50;99.90;;;;;;5066213;28;20168;-70
2022/01/09 08:24:39;;;;;;;22.52;4.65;;;5.50;99.90;;;;;;5078980;28;20413;-70
2022/01/09 08:27:06;;;;;;;9.63;3.22;;;5.50;99.90;;;;;;5065503;28;20036;-70
2022/01/09 08:29:31;;;;;;;9.65;4.38;;;5.50;99.90;;;;;;5076824;28;20040;-71
2022/01/09 08:31:57;;;;;;;11.85;2.67;;;5.50;99.90;;;;;;5080727;28;20595;-70
2022/01/09 08:34:23;;;;;;;5.65;2.33;;;5.50;99.90;;;;;;5077515;28;20058;-70
2022/01/09 08:36:49;;;;;;;8.18;3.00;;;5.50;99.90;;;;;;5080625;28;20044;-70
2022/01/09 08:39:16;;;;;;;12.15;3.20;;;5.50;99.90;;;;;;5080727;28;20056;-70
2022/01/09 08:41:42;;;;;;;8.98;2.92;;;5.50;99.90;;;;;;5076014;28;20089;-70
2022/01/09 08:44:08;;;;;;;8.75;2.63;;;5.50;99.90;;;;;;5076854;28;20636;-71
2022/01/09 08:46:35;;;;;;;11.93;2.67;;;5.40;99.90;;;;;;5059213;28;20040;-70
2022/01/09 08:49:03;;;;;;;7.03;1.88;;;5.50;99.90;;;;;;5078096;28;20067;-71
2022/01/09 08:51:29;;;;;;;9.90;2.35;;;5.50;99.90;;;;;;5050389;28;20145;-70
2022/01/09 08:53:56;;;;;;;8.27;3.05;;;5.40;99.90;;;;;;5077057;28;20389;-71
2022/01/09 08:56:23;;;;;;;9.70;3.13;;;5.50;99.90;;;;;;5079888;28;20409;-70
2022/01/09 08:58:50;;;;;;;6.78;2.28;;;5.50;99.90;;;;;;5078688;28;20393;-70
2022/01/09 09:01:16;;;;;;;12.63;2.85;;;5.40;99.90;;;;;;5073071;28;20131;-71
2022/01/09 09:03:43;;;;;;;5.40;2.50;;;5.40;99.90;;;;;;5075756;28;20051;-70
2022/01/09 09:06:14;;;;;;;5.68;2.33;;;5.50;99.90;;;;;;5071583;28;20502;-70
2022/01/09 09:08:42;;;;;;;10.20;3.10;;;5.50;99.90;;;;;;5078199;28;20110;-70
2022/01/09 09:11:10;;;;;;;4.72;2.25;;;5.40;99.90;;;;;;5078684;28;20075;-70
2022/01/09 09:13:37;;;;;;;6.95;2.45;;;5.40;99.90;;;;;;5076730;28;20063;-70
2022/01/09 09:16:03;;;;;;;14.15;3.47;;;5.40;99.90;;;;;;5079912;28;20032;-70
2022/01/09 09:18:29;;;;;;;11.68;2.55;;;5.40;99.90;;;;;;5078833;28;20032;-70
2022/01/09 09:20:55;;;;;;;13.65;3.85;;;5.40;99.90;;;;;;5078346;28;20038;-70
2022/01/09 09:23:21;;;;;;;10.02;3.85;;;5.40;99.90;;;;;;5081625;28;20493;-70
2022/01/09 09:25:47;;;;;;;8.23;2.78;;;5.40;99.90;;;;;;5073376;28;20040;-70
2022/01/09 09:28:14;;;;;;;6.78;2.90;;;5.40;99.90;;;;;;5078980;28;20036;-70
2022/01/09 09:30:39;;;;;;;5.63;2.67;;;5.40;99.90;;;;;;5078007;28;20039;-70
2022/01/09 09:33:05;;;;;;;8.82;2.88;;;5.40;99.90;;;;;;5078609;28;20485;-70
2022/01/09 09:35:32;;;;;;;8.98;2.63;;;5.40;99.90;;;;;;5080979;28;20039;-70
2022/01/09 09:37:58;;;;;;;12.82;3.47;;;5.40;99.90;;;;;;5075412;28;20496;-70
2022/01/09 09:40:26;;;;;;;8.93;3.33;;;5.40;99.90;;;;;;5062572;28;20056;-70
2022/01/09 09:42:53;;;;;;;7.88;4.05;;;5.40;99.90;;;;;;5078605;28;20040;-70
2022/01/09 09:45:19;;;;;;;7.90;2.40;;;5.40;99.90;;;;;;5043397;28;20165;-70
2022/01/09 09:47:44;;;;;;;13.07;2.75;;;5.40;99.90;;;;;;5079903;28;20491;-70
2022/01/09 09:50:13;;;;;;;8.00;2.60;;;5.50;99.90;;;;;;5057579;28;20389;-70
2022/01/09 09:52:41;;;;;;;10.68;3.33;;;5.50;99.90;;;;;;5080497;28;20089;-70
2022/01/09 09:55:07;;;;;;;8.95;2.72;;;5.50;99.90;;;;;;5079502;28;20039;-70
2022/01/09 09:57:33;;;;;;;9.40;2.80;;;5.50;99.90;;;;;;5077004;28;20363;-70
2022/01/09 10:00:07;;;;;;;7.25;2.65;;;5.50;99.90;;;;;;5080035;28;20123;-70
2022/01/09 10:02:50;;;;;;;6.60;2.65;;;5.50;99.90;;;;;;5076902;28;20393;-70
2022/01/09 10:05:21;;;;;;;8.10;2.38;;;5.60;99.90;;;;;;5075084;28;20055;-70
2022/01/09 10:07:48;;;;;;;5.28;2.05;;;5.50;99.90;;;;;;5080502;28;20105;-70
2022/01/09 10:10:19;;;;;;;14.23;2.55;;;5.50;99.90;;;;;;5075157;28;20093;-70
2022/01/09 10:12:46;;;;;;;4.95;1.95;;;5.50;99.90;;;;;;5077559;28;20151;-70
2022/01/09 10:15:17;;;;;;;7.35;2.30;;;5.50;99.90;;;;;;5080045;28;20075;-70
2022/01/09 10:17:52;;;;;;;9.23;3.05;;;5.50;99.90;;;;;;5076377;28;20040;-70
2022/01/09 10:20:20;;;;;;;8.40;2.53;;;5.50;99.90;;;;;;5080776;28;20043;-70
2022/01/09 10:22:54;;;;;;;10.38;2.83;;;5.60;99.90;;;;;;5079219;28;20040;-70
2022/01/09 10:25:31;;;;;;;14.02;4.15;;;5.60;99.90;;;;;;5081570;28;20070;-70
2022/01/09 10:28:12;;;;;;;11.00;2.55;;;5.60;99.90;;;;;;5082373;28;20632;-70
2022/01/09 10:30:40;;;;;;;7.90;3.05;;;5.60;99.90;;;;;;5078609;28;20040;-70
2022/01/09 10:33:09;;;;;;;6.70;2.35;;;5.60;99.90;;;;;;5081805;28;20036;-70
2022/01/09 10:35:37;;;;;;;8.27;2.67;;;5.60;99.90;;;;;;5082185;28;20043;-70
2022/01/09 10:38:13;;;;;;;14.18;2.85;;;5.70;99.90;;;;;;5080121;28;20637;-70
2022/01/09 10:40:42;;;;;;;10.68;3.22;;;5.70;99.90;;;;;;5085844;28;20452;-71
2022/01/09 10:43:16;;;;;;;7.05;2.30;;;5.70;99.90;;;;;;5063393;28;20370;-70
2022/01/09 10:45:59;;;;;;;13.50;2.55;;;5.70;99.90;;;;;;5081682;28;20101;-70
2022/01/09 10:48:45;;;;;;;12.63;2.72;;;5.70;99.90;;;;;;5084461;28;20044;-70
2022/01/09 10:51:13;;;;;;;10.65;3.42;;;5.80;99.90;;;;;;5077704;28;20031;-70
2022/01/09 10:53:43;;;;;;;12.10;3.03;;;5.80;99.90;;;;;;5079562;28;20037;-70
2022/01/09 10:56:17;;;;;;;9.55;2.50;;;5.90;99.90;;;;;;5074107;28;20044;-70
2022/01/09 10:58:45;;;;;;;8.13;3.05;;;6.00;99.90;;;;;;5068296;28;20032;-70
2022/01/09 11:01:27;;;;;;;5.88;2.80;;;6.10;99.90;;;;;;5083506;28;20032;-70
2022/01/09 11:04:04;;;;;;;14.07;3.10;;;6.20;99.90;;;;;;5083162;28;20036;-71
2022/01/09 11:06:31;;;;;;;10.18;3.40;;;6.30;99.90;;;;;;5077379;28;20032;-70
2022/01/09 11:08:59;;;;;;;6.95;2.83;;;6.40;99.90;;;;;;5082532;28;20059;-71
2022/01/09 11:13:56;;;;;;;9.80;2.83;;;6.70;99.90;;;;;;5081264;28;20036;-70
2022/01/09 11:16:33;;;;;;;10.85;3.30;;;6.80;99.90;;;;;;5083430;28;20043;-71
2022/01/09 11:19:03;;;;;;;9.00;2.70;;;7.00;99.90;;;;;;5079919;28;20615;-71
2022/01/09 11:21:29;;;;;;;10.27;2.75;;;7.50;99.90;;;;;;5081918;28;20044;-71
2022/01/09 11:24:01;;;;;;;7.05;2.58;;;8.00;99.90;;;;;;5081683;28;20084;-72
2022/01/09 11:26:39;;;;;;;9.65;3.25;;;8.20;99.90;;;;;;5080662;28;20036;-72
2022/01/09 11:29:11;;;;;;;9.95;2.85;;;8.30;99.90;;;;;;5084335;28;20048;-71
2022/01/09 11:31:52;;;;;;;7.43;2.33;;;8.40;99.90;;;;;;5068553;28;20572;-71
2022/01/09 11:34:48;;;;;;;8.13;2.30;;;8.50;99.90;;;;;;5067962;28;20123;-71
2022/01/09 11:37:29;;;;;;;11.50;3.53;;;8.80;99.90;;;;;;5065846;28;20039;-71
2022/01/09 11:39:55;;;;;;;10.98;3.20;;;9.20;99.90;;;;;;5082149;28;20139;-71
2022/01/09 11:42:21;;;;;;;10.40;2.92;;;9.80;99.90;;;;;;5079163;28;20092;-71
2022/01/09 11:44:49;;;;;;;6.15;2.83;;;10.50;99.90;;;;;;5082051;28;20047;-71
2022/01/09 11:47:15;;;;;;;8.77;2.75;;;11.20;99.90;;;;;;5078022;28;20145;-71
2022/01/09 11:49:53;;;;;;;7.22;2.80;;;11.60;99.90;;;;;;5081332;28;20048;-71
2022/01/09 11:52:20;;;;;;;5.95;2.35;;;11.50;99.90;;;;;;5079549;28;20067;-71
2022/01/09 11:54:51;;;;;;;12.32;3.15;;;10.90;99.90;;;;;;5078290;28;20255;-71
2022/01/09 11:57:40;;;;;;;8.57;2.80;;;10.50;99.90;;;;;;5084315;28;20036;-71
2022/01/09 12:00:26;;;;;;;8.50;2.70;;;10.70;95.10;;;;;;5076177;28;20557;-71
2022/01/09 12:02:52;;;;;;;11.55;3.30;;;11.00;99.90;;;;;;5076003;28;20462;-71
2022/01/09 12:05:18;;;;;;;5.75;2.50;;;11.60;99.90;;;;;;5076535;28;20544;-71
2022/01/09 12:07:48;;;;;;;11.20;2.75;;;11.90;99.90;;;;;;5076513;28;20121;-71
2022/01/09 12:10:22;;;;;;;5.80;2.25;;;12.10;99.90;;;;;;5081398;28;20298;-71
2022/01/09 12:12:49;;;;;;;8.63;3.10;;;12.30;97.20;;;;;;5079865;28;20040;-71
2022/01/09 12:15:34;;;;;;;7.60;2.30;;;12.60;96.30;;;;;;5075530;28;20497;-71
2022/01/09 12:18:03;;;;;;;6.22;2.47;;;12.60;86.60;;;;;;5068114;28;20093;-71
2022/01/09 12:20:37;;;;;;;5.82;2.67;;;12.20;92.10;;;;;;5079473;28;20645;-71
2022/01/09 12:23:05;;;;;;;9.18;3.00;;;11.70;91.40;;;;;;5077546;28;20036;-71
2022/01/09 12:25:33;;;;;;;7.75;2.58;;;11.20;92.00;;;;;;5081801;28;20040;-70
2022/01/09 12:28:04;;;;;;;7.05;3.10;;;10.60;91.30;;;;;;5079666;28;20066;-70
2022/01/09 12:30:33;;;;;;;7.57;2.13;;;10.30;92.20;;;;;;5078400;28;20288;-70
2022/01/09 12:33:25;;;;;;;5.03;2.20;;;10.30;95.50;;;;;;5082408;28;20075;-70
2022/01/09 12:35:59;;;;;;;6.80;2.25;;;10.60;95.90;;;;;;5077777;28;20118;-70
2022/01/09 12:38:31;;;;;;;10.38;2.67;;;10.60;94.90;;;;;;5077255;28;20157;-70
2022/01/09 12:40:58;;;;;;;4.45;2.28;;;10.60;94.30;;;;;;5082289;28;20044;-71
2022/01/09 12:43:26;;;;;;;11.75;2.80;;;10.40;94.70;;;;;;5078525;28;20049;-70
2022/01/09 12:45:52;;;;;;;11.70;3.30;;;10.50;95.60;;;;;;5078541;28;20048;-70
2022/01/09 12:48:30;;;;;;;6.20;2.60;;;10.50;96.10;;;;;;5077934;28;20036;-70
2022/01/09 12:51:15;;;;;;;9.50;2.95;;;10.40;94.70;;;;;;5074352;28;20047;-70
2022/01/09 12:53:52;;;;;;;6.07;2.70;;;10.30;94.40;;;;;;5079970;28;20047;-71
2022/01/09 12:56:20;;;;;;;5.22;1.88;;;10.30;95.30;;;;;;5074527;28;20032;-71
2022/01/09 12:58:48;;;;;;;10.73;2.60;;;10.00;94.80;;;;;;5077390;28;20082;-72
2022/01/09 13:01:16;;;;;;;5.70;2.63;;;9.70;94.80;;;;;;5081243;28;20093;-70